createdAt,value
2019-06-10T00:02:02.120Z,3.20
2019-06-10T00:05:23.870Z,2.73
2019-06-10T00:08:46.413Z,3.10
2019-06-10T00:12:10.085Z,2.97
2019-06-10T00:15:32.980Z,3.07
2019-06-10T00:18:55.616Z,2.60
2019-06-10T00:22:18.300Z,2.70
2019-06-10T00:25:41.778Z,2.73
2019-06-10T00:29:05.770Z,2.90
2019-06-10T00:32:28.347Z,3.17
2019-06-10T00:35:51.453Z,2.87
2019-06-10T00:39:14.012Z,3.00
2019-06-10T00:42:36.472Z,3.10
2019-06-10T00:45:59.989Z,2.77
2019-06-10T00:49:22.799Z,3.10
2019-06-10T00:52:45.562Z,2.77
2019-06-10T00:56:10.530Z,2.90
2019-06-10T00:59:32.595Z,3.03
2019-06-10T01:02:54.919Z,2.83
2019-06-10T01:06:17.472Z,3.40
2019-06-10T01:09:41.279Z,3.13
2019-06-10T01:13:05.001Z,2.73
2019-06-10T01:16:27.711Z,2.90
2019-06-10T01:19:50.892Z,3.20
2019-06-10T01:23:15.587Z,3.00
2019-06-10T01:26:37.436Z,3.00
2019-06-10T01:30:01.484Z,2.77
2019-06-10T01:33:23.688Z,2.63
2019-06-10T01:36:46.367Z,2.77
2019-06-10T01:40:12.895Z,2.77
2019-06-10T01:43:33.059Z,2.90
2019-06-10T01:46:55.672Z,2.90
2019-06-10T01:50:19.495Z,2.93
2019-06-10T01:53:42.275Z,3.00
2019-06-10T01:57:04.875Z,3.00
2019-06-10T02:00:35.107Z,2.77
2019-06-10T02:03:57.508Z,2.90
2019-06-10T02:07:22.897Z,2.57
2019-06-10T02:10:44.779Z,2.70
2019-06-10T02:14:07.528Z,2.87
2019-06-10T02:17:31.517Z,3.03
2019-06-10T02:20:54.230Z,3.20
2019-06-10T02:24:17.693Z,3.07
2019-06-10T02:27:41.468Z,2.83
2019-06-10T02:31:04.110Z,2.73
2019-06-10T02:34:27.704Z,2.80
2019-06-10T02:37:50.288Z,2.70
2019-06-10T02:41:16.343Z,2.90
2019-06-10T02:44:37.851Z,2.90
2019-06-10T02:48:00.207Z,2.90
2019-06-10T02:51:30.003Z,2.90
2019-06-10T02:54:47.779Z,3.50
2019-06-10T02:58:13.607Z,3.43
2019-06-10T03:01:37.920Z,3.93
2019-06-10T03:04:57.950Z,3.43
2019-06-10T03:08:25.937Z,3.37
2019-06-10T03:11:45.133Z,3.47
2019-06-10T03:15:07.630Z,3.40
2019-06-10T03:18:32.673Z,3.90
2019-06-10T03:21:54.142Z,3.47
2019-06-10T03:25:16.401Z,3.20
2019-06-10T03:28:38.735Z,3.90
2019-06-10T03:32:05.201Z,3.83
2019-06-10T03:35:26.867Z,3.90
2019-06-10T03:38:49.384Z,4.07
2019-06-10T03:42:12.606Z,4.50
2019-06-10T03:45:35.412Z,4.20
2019-06-10T03:48:57.722Z,4.60
2019-06-10T03:52:23.502Z,4.90
2019-06-10T03:55:44.828Z,5.97
2019-06-10T03:59:07.344Z,5.60
2019-06-10T04:02:29.482Z,4.70
2019-06-10T04:05:52.736Z,5.37
2019-06-10T04:09:15.274Z,6.23
2019-06-10T04:12:38.007Z,6.10
2019-06-10T04:16:02.332Z,6.23
2019-06-10T04:19:26.834Z,6.60
2019-06-10T04:22:49.236Z,6.43
2019-06-10T04:26:12.721Z,6.70
2019-06-10T04:29:35.503Z,7.53
2019-06-10T04:32:58.083Z,7.03
2019-06-10T04:36:22.766Z,8.77
2019-06-10T04:39:44.231Z,8.13
2019-06-10T04:43:06.840Z,8.20
2019-06-10T04:46:29.623Z,7.83
2019-06-10T04:49:52.474Z,7.37
2019-06-10T04:53:15.230Z,7.80
2019-06-10T04:56:37.666Z,8.30
2019-06-10T05:00:02.571Z,9.03
2019-06-10T05:03:26.545Z,7.83
2019-06-10T05:06:48.502Z,7.97
2019-06-10T05:10:12.637Z,7.70
2019-06-10T05:13:34.927Z,7.63
2019-06-10T05:16:57.380Z,7.50
2019-06-10T05:20:20.128Z,7.60
2019-06-10T05:23:43.240Z,7.93
2019-06-10T05:27:05.442Z,7.07
2019-06-10T05:30:29.571Z,7.87
2019-06-10T05:33:52.990Z,7.60
2019-06-10T05:37:15.701Z,7.87
2019-06-10T05:40:38.331Z,7.50
2019-06-10T05:44:02.665Z,7.03
2019-06-10T05:47:27.753Z,6.57
2019-06-10T05:51:02.629Z,8.00
2019-06-10T05:54:16.628Z,6.50
2019-06-10T05:57:39.292Z,6.87
2019-06-10T06:01:02.746Z,6.53
2019-06-10T06:04:26.380Z,6.20
2019-06-10T06:08:01.394Z,6.20
2019-06-10T06:11:13.301Z,6.00
2019-06-10T06:14:36.190Z,6.33
2019-06-10T06:18:07.178Z,6.23
2019-06-10T06:21:30.045Z,5.80
2019-06-10T06:24:46.675Z,5.87
2019-06-10T06:28:09.035Z,6.03
2019-06-10T06:31:33.349Z,5.40
2019-06-10T06:34:55.545Z,5.40
2019-06-10T06:38:17.845Z,5.77
2019-06-10T06:41:42.649Z,5.27
2019-06-10T06:45:05.264Z,4.83
2019-06-10T06:48:27.918Z,5.03
2019-06-10T06:51:56.115Z,4.70
2019-06-10T06:55:14.606Z,4.70
2019-06-10T06:58:38.600Z,5.57
2019-06-10T07:02:02.772Z,5.20
2019-06-10T07:05:25.401Z,5.30
2019-06-10T07:09:00.235Z,5.80
2019-06-10T07:12:13.034Z,5.70
2019-06-10T07:15:46.566Z,5.30
2019-06-10T07:19:05.302Z,5.50
2019-06-10T07:22:28.263Z,5.00
2019-06-10T07:25:53.082Z,5.00
2019-06-10T07:29:15.180Z,5.70
2019-06-10T07:32:39.194Z,5.72
2019-06-10T07:36:03.311Z,4.77
2019-06-10T07:39:26.173Z,5.13
2019-06-10T07:42:48.604Z,5.40
2019-06-10T07:46:13.367Z,5.17
2019-06-10T07:49:35.415Z,5.10
2019-06-10T07:52:57.935Z,5.53
2019-06-10T07:56:23.003Z,5.13
2019-06-10T07:59:45.797Z,5.33
2019-06-10T08:03:08.710Z,4.92
2019-06-10T08:06:33.528Z,5.28
2019-06-10T08:09:55.568Z,6.22
2019-06-10T08:13:17.908Z,4.78
2019-06-10T08:16:40.357Z,4.85
2019-06-10T08:20:02.804Z,5.20
2019-06-10T08:23:25.261Z,4.75
2019-06-10T08:26:47.851Z,5.33
2019-06-10T08:30:18.561Z,4.65
2019-06-10T08:33:34.995Z,4.75
2019-06-10T08:36:57.389Z,4.60
2019-06-10T08:40:20.116Z,5.40
2019-06-10T08:43:45.204Z,4.70
2019-06-10T08:47:06.939Z,4.80
2019-06-10T08:50:29.618Z,4.80
2019-06-10T08:53:53.215Z,5.08
2019-06-10T08:57:16.144Z,5.05
2019-06-10T09:00:39.197Z,4.87
2019-06-10T09:04:03.169Z,5.53
2019-06-10T09:07:26.051Z,5.15
2019-06-10T09:10:51.176Z,5.03
2019-06-10T09:14:12.784Z,5.50
2019-06-10T09:17:35.466Z,4.75
2019-06-10T09:20:57.691Z,4.90
2019-06-10T09:24:22.180Z,5.17
2019-06-10T09:27:47.925Z,4.92
2019-06-10T09:31:08.463Z,5.10
2019-06-10T09:34:33.010Z,4.78
2019-06-10T09:37:55.842Z,5.22
2019-06-10T09:41:18.226Z,5.10
2019-06-10T09:44:45.155Z,5.30
2019-06-10T09:48:04.707Z,5.50
2019-06-10T09:51:27.316Z,5.40
2019-06-10T09:54:54.275Z,6.10
2019-06-10T09:58:13.560Z,5.97
2019-06-10T10:01:36.206Z,5.62
2019-06-10T10:04:58.782Z,5.40
2019-06-10T10:08:23.278Z,6.12
2019-06-10T10:11:47.390Z,5.95
2019-06-10T10:15:26.082Z,5.83
2019-06-10T10:18:34.203Z,5.30
2019-06-10T10:21:58.395Z,5.50
2019-06-10T10:25:23.405Z,6.10
2019-06-10T10:28:46.194Z,6.00
2019-06-10T10:32:08.555Z,6.22
2019-06-10T10:35:32.677Z,5.78
2019-06-10T10:38:56.656Z,6.05
2019-06-10T10:42:19.245Z,6.40
2019-06-10T10:45:43.456Z,6.30
2019-06-10T10:49:05.698Z,6.03
2019-06-10T10:52:28.142Z,6.30
2019-06-10T10:55:51.856Z,6.20
2019-06-10T10:59:14.804Z,5.70
2019-06-10T11:02:37.129Z,5.90
2019-06-10T11:06:01.074Z,6.85
2019-06-10T11:09:26.129Z,14.18
2019-06-10T11:12:49.101Z,6.10
2019-06-10T11:16:11.771Z,6.50
2019-06-10T11:19:34.538Z,7.15
2019-06-10T11:22:57.781Z,7.25
2019-06-10T11:26:22.856Z,7.03
2019-06-10T11:29:46.095Z,6.67
2019-06-10T11:33:08.459Z,8.00
2019-06-10T11:36:30.720Z,7.70
2019-06-10T11:39:54.958Z,7.67
2019-06-10T11:43:17.564Z,7.42
2019-06-10T11:46:40.017Z,7.67
2019-06-10T11:50:03.567Z,7.33
2019-06-10T11:53:28.673Z,8.10
2019-06-10T11:56:49.829Z,7.25
2019-06-10T12:00:14.734Z,7.53
2019-06-10T12:03:36.928Z,7.25
2019-06-10T12:06:59.485Z,7.62
2019-06-10T12:10:23.322Z,7.25
2019-06-10T12:13:45.528Z,7.37
2019-06-10T12:17:31.155Z,7.60
2019-06-10T12:20:33.399Z,9.13
2019-06-10T12:24:00.067Z,7.72
2019-06-10T12:27:20.289Z,7.58
2019-06-10T12:30:42.528Z,8.23
2019-06-10T12:34:06.035Z,7.80
2019-06-10T12:37:28.679Z,8.05
2019-06-10T12:40:52.427Z,9.05
2019-06-10T12:44:15.232Z,8.43
2019-06-10T12:47:37.745Z,7.25
2019-06-10T12:51:01.690Z,7.67
2019-06-10T12:54:24.012Z,7.83
2019-06-10T12:57:46.186Z,14.70
2019-06-10T13:01:08.848Z,8.33
2019-06-10T13:04:31.654Z,7.95
2019-06-10T13:07:55.481Z,8.10
2019-06-10T13:11:17.948Z,8.35
2019-06-10T13:14:42.884Z,8.80
2019-06-10T13:18:07.560Z,9.80
2019-06-10T13:21:28.888Z,8.10
2019-06-10T13:24:53.532Z,7.70
2019-06-10T13:28:15.432Z,8.28
2019-06-10T13:31:37.814Z,8.20
2019-06-10T13:35:00.899Z,8.15
2019-06-10T13:38:25.853Z,8.55
2019-06-10T13:41:47.098Z,8.10
2019-06-10T13:45:10.990Z,8.10
2019-06-10T13:48:33.393Z,8.50
2019-06-10T13:51:55.631Z,8.03
2019-06-10T13:55:17.962Z,8.43
2019-06-10T13:58:45.076Z,8.80
2019-06-10T14:02:06.391Z,8.53
2019-06-10T14:05:28.132Z,7.95
2019-06-10T14:08:54.577Z,8.00
2019-06-10T14:12:17.315Z,7.72
2019-06-10T14:15:38.586Z,8.95
2019-06-10T14:19:02.123Z,8.35
2019-06-10T14:22:24.783Z,8.58
2019-06-10T14:25:47.375Z,8.23
2019-06-10T14:29:12.523Z,8.93
2019-06-10T14:32:34.114Z,8.80
2019-06-10T14:35:56.460Z,8.30
2019-06-10T14:39:19.116Z,8.18
2019-06-10T14:42:42.905Z,8.43
2019-06-10T14:46:07.214Z,8.38
2019-06-10T14:49:29.223Z,8.73
2019-06-10T14:52:51.927Z,8.50
2019-06-10T14:56:17.269Z,8.48
2019-06-10T14:59:38.164Z,8.55
2019-06-10T15:03:02.436Z,8.70
2019-06-10T15:06:24.066Z,8.45
2019-06-10T15:09:46.499Z,8.63
2019-06-10T15:13:09.716Z,8.25
2019-06-10T15:16:33.603Z,8.40
2019-06-10T15:19:56.479Z,8.33
2019-06-10T15:23:20.409Z,7.78
2019-06-10T15:26:42.796Z,8.80
2019-06-10T15:30:12.345Z,8.20
2019-06-10T15:33:32.412Z,8.45
2019-06-10T15:36:54.191Z,8.70
2019-06-10T15:40:17.918Z,8.85
2019-06-10T15:43:42.247Z,8.58
2019-06-10T15:47:04.343Z,8.30
2019-06-10T15:50:27.687Z,8.50
2019-06-10T15:53:49.853Z,8.58
2019-06-10T15:57:26.880Z,8.20
2019-06-10T16:00:36.358Z,8.35
2019-06-10T16:03:58.948Z,8.58
2019-06-10T16:07:25.354Z,8.73
2019-06-10T16:10:45.451Z,8.70
2019-06-10T16:14:07.781Z,7.92
2019-06-10T16:17:33.103Z,8.55
2019-06-10T16:20:53.896Z,8.70
2019-06-10T16:24:17.250Z,8.70
2019-06-10T16:27:47.189Z,8.35
2019-06-10T16:31:03.970Z,8.75
2019-06-10T16:34:28.812Z,8.23
2019-06-10T16:37:52.989Z,9.08
2019-06-10T16:41:15.317Z,9.18
2019-06-10T16:44:37.627Z,9.45
2019-06-10T16:48:02.349Z,8.70
2019-06-10T16:51:25.649Z,9.15
2019-06-10T16:54:48.495Z,8.73
2019-06-10T16:58:12.922Z,8.83
2019-06-10T17:01:35.495Z,9.13
2019-06-10T17:04:58.626Z,9.08
2019-06-10T17:08:26.062Z,8.75
2019-06-10T17:11:45.236Z,9.48
2019-06-10T17:15:09.058Z,9.28
2019-06-10T17:18:33.651Z,9.13
2019-06-10T17:21:55.861Z,8.93
2019-06-10T17:25:19.044Z,8.90
2019-06-10T17:28:42.864Z,10.10
2019-06-10T17:32:05.427Z,9.15
2019-06-10T17:35:28.611Z,9.33
2019-06-10T17:38:52.395Z,9.60
2019-06-10T17:42:14.841Z,8.70
2019-06-10T17:45:37.687Z,9.68
2019-06-10T17:49:02.444Z,9.65
2019-06-10T17:52:25.754Z,9.28
2019-06-10T17:55:48.415Z,9.65
2019-06-10T17:59:12.657Z,9.73
2019-06-10T18:02:39.169Z,9.35
2019-06-10T18:05:58.617Z,9.40
2019-06-10T18:09:22.718Z,10.50
2019-06-10T18:12:44.528Z,9.38
2019-06-10T18:16:06.960Z,10.32
2019-06-10T18:19:30.429Z,10.53
2019-06-10T18:22:53.036Z,10.15
2019-06-10T18:26:15.500Z,9.80
2019-06-10T18:29:37.706Z,9.68
2019-06-10T18:33:02.745Z,9.35
2019-06-10T18:36:24.655Z,9.60
2019-06-10T18:39:47.041Z,9.40
2019-06-10T18:43:12.044Z,9.20
2019-06-10T18:46:36.483Z,10.98
2019-06-10T18:49:58.028Z,9.40
2019-06-10T18:53:23.169Z,10.25
2019-06-10T18:56:44.352Z,10.70
2019-06-10T19:00:13.733Z,10.53
2019-06-10T19:03:34.716Z,9.48
2019-06-10T19:06:56.054Z,10.43
2019-06-10T19:10:19.486Z,11.00
2019-06-10T19:13:43.633Z,10.43
2019-06-10T19:17:06.138Z,10.60
2019-06-10T19:20:29.856Z,10.85
2019-06-10T19:23:53.228Z,11.45
2019-06-10T19:27:15.457Z,10.60
2019-06-10T19:30:39.374Z,10.75
2019-06-10T19:34:03.420Z,11.70
2019-06-10T19:37:25.830Z,11.03
2019-06-10T19:40:47.919Z,10.98
2019-06-10T19:44:12.879Z,11.73
2019-06-10T19:47:36.309Z,10.75
2019-06-10T19:50:59.052Z,10.88
2019-06-10T19:54:21.721Z,11.93
2019-06-10T19:57:44.393Z,11.40
2019-06-10T20:01:06.530Z,11.78
2019-06-10T20:04:28.953Z,13.00
2019-06-10T20:07:53.319Z,12.28
2019-06-10T20:11:15.157Z,12.60
2019-06-10T20:14:38.437Z,11.93
2019-06-10T20:18:02.846Z,12.43
2019-06-10T20:21:25.111Z,12.37
2019-06-10T20:24:48.885Z,12.82
2019-06-10T20:28:13.181Z,12.90
2019-06-10T20:31:35.829Z,13.03
2019-06-10T20:34:58.501Z,12.88
2019-06-10T20:38:22.307Z,13.38
2019-06-10T20:41:50.490Z,13.30
2019-06-10T20:45:09.636Z,13.85
2019-06-10T20:48:33.187Z,14.38
2019-06-10T20:52:09.837Z,14.68
2019-06-10T20:55:19.828Z,14.35
2019-06-10T20:58:43.773Z,14.30
2019-06-10T21:02:06.414Z,13.93
2019-06-10T21:05:29.324Z,14.65
2019-06-10T21:08:53.759Z,14.80
2019-06-10T21:12:15.797Z,16.87
2019-06-10T21:15:39.724Z,15.70
2019-06-10T21:19:02.596Z,15.55
2019-06-10T21:22:24.975Z,16.90
2019-06-10T21:25:49.451Z,17.62
2019-06-10T21:29:12.878Z,18.52
2019-06-10T21:32:35.552Z,18.85
2019-06-10T21:35:57.797Z,19.37
2019-06-10T21:39:20.454Z,18.57
2019-06-10T21:42:43.683Z,18.75
2019-06-10T21:46:06.123Z,19.92
2019-06-10T21:49:28.630Z,19.12
2019-06-10T21:52:53.104Z,19.67
2019-06-10T21:56:15.088Z,20.55
2019-06-10T21:59:37.588Z,20.77
2019-06-10T22:03:02.203Z,20.70
2019-06-10T22:06:24.147Z,21.15
2019-06-10T22:09:47.677Z,21.57
2019-06-10T22:13:12.376Z,21.90
2019-06-10T22:16:35.009Z,23.18
2019-06-10T22:19:57.755Z,23.77
2019-06-10T22:23:20.334Z,25.20
2019-06-10T22:26:42.616Z,25.05
2019-06-10T22:30:11.121Z,25.17
2019-06-10T22:33:29.562Z,24.18
2019-06-10T22:36:53.837Z,25.43
2019-06-10T22:40:16.215Z,28.20
2019-06-10T22:43:38.157Z,29.00
2019-06-10T22:47:02.798Z,30.35
2019-06-10T22:50:24.627Z,32.73
2019-06-10T22:53:48.260Z,27.67
2019-06-10T22:57:12.967Z,29.23
2019-06-10T23:00:35.704Z,32.28
2019-06-10T23:03:57.857Z,29.53
2019-06-10T23:07:22.926Z,28.30
2019-06-10T23:10:44.584Z,28.77
2019-06-10T23:14:07.041Z,29.73
2019-06-10T23:17:29.637Z,30.90
2019-06-10T23:20:55.585Z,32.60
2019-06-10T23:24:16.082Z,32.80
2019-06-10T23:27:41.072Z,36.90
2019-06-10T23:31:04.937Z,34.10
2019-06-10T23:34:26.027Z,33.60
2019-06-10T23:37:48.171Z,35.00
2019-06-10T23:41:13.012Z,37.80
2019-06-10T23:44:35.189Z,39.13
2019-06-10T23:47:58.071Z,38.57
2019-06-10T23:51:22.824Z,38.13
2019-06-10T23:54:45.292Z,41.93
2019-06-10T23:58:07.726Z,47.25
